Time;durP1;ratioP1;P1;durP2;ratioP2;P2;SDS_P1;SDS_P2;PMS_P1;PMS_P2;Temp;Humidity;BMP_temperature;BMP_pressure;BME280_temperature;BME280_humidity;BME280_pressure;Samples;Min_cycle;Max_cycle;Signal;HPM_P1;HPM_P2
2023/09/10 00:00:58;;;;;;;;;13.00;12.67;;;;;28.34;56.46;100181.13;5045174;28;45389;-69
2023/09/10 00:03:24;;;;;;;;;15.67;13.67;;;;;28.20;57.26;100189.88;5047360;28;45301;-70
2023/09/10 00:05:50;;;;;;;;;13.33;12.33;;;;;28.14;57.39;100198.22;5047966;28;45630;-70
2023/09/10 00:08:15;;;;;;;;;15.67;14.00;;;;;28.25;58.57;100203.06;5041967;28;45448;-74
2023/09/10 00:10:42;;;;;;;;;13.00;13.00;;;;;28.19;59.38;100173.84;5043594;28;45433;-71
2023/09/10 00:13:08;;;;;;;;;16.33;14.33;;;;;28.09;60.18;100186.84;5042899;28;45513;-68
2023/09/10 00:15:34;;;;;;;;;14.67;14.00;;;;;27.83;59.60;100180.00;5042854;28;45454;-69
2023/09/10 00:18:00;;;;;;;;;14.33;13.67;;;;;27.75;62.21;100193.78;5040190;28;45458;-71
2023/09/10 00:20:27;;;;;;;;;16.67;16.33;;;;;27.67;61.97;100182.53;5046698;28;46017;-70
2023/09/10 00:22:52;;;;;;;;;16.00;16.00;;;;;27.52;61.56;100170.72;5051300;28;45496;-69
2023/09/10 00:25:18;;;;;;;;;9.67;9.67;;;;;27.47;61.53;100178.09;5046564;28;45430;-70
2023/09/10 00:27:44;;;;;;;;;14.67;14.33;;;;;27.38;61.46;100172.22;5044808;28;45509;-70
2023/09/10 00:30:10;;;;;;;;;16.00;14.67;;;;;27.31;61.60;100161.84;5047720;28;45455;-68
2023/09/10 00:32:36;;;;;;;;;16.33;14.33;;;;;27.25;62.39;100154.94;5042558;28;45448;-69
2023/09/10 00:35:03;;;;;;;;;13.67;13.00;;;;;27.22;61.83;100162.22;5046889;28;45458;-70
2023/09/10 00:37:29;;;;;;;;;14.67;14.00;;;;;27.08;61.75;100149.41;5043340;28;45613;-82
2023/09/10 00:39:55;;;;;;;;;15.33;12.33;;;;;27.12;61.06;100168.00;5048190;28;46231;-68
2023/09/10 00:42:24;;;;;;;;;16.67;14.67;;;;;27.17;61.25;100195.47;5037514;28;45382;-69
2023/09/10 00:44:49;;;;;;;;;14.67;12.00;;;;;27.18;61.35;100197.22;5043359;28;45419;-73
2023/09/10 00:47:15;;;;;;;;;14.33;12.67;;;;;27.13;62.58;100182.28;5048050;28;45462;-69
2023/09/10 00:49:43;;;;;;;;;10.00;9.33;;;;;26.89;62.47;100170.81;5046876;28;46018;-82
2023/09/10 00:52:10;;;;;;;;;15.00;12.67;;;;;26.98;64.20;100186.53;5050186;28;45353;-70
2023/09/10 00:54:37;;;;;;;;;14.33;13.00;;;;;26.99;64.23;100223.09;5045403;28;45585;-70
2023/09/10 00:57:05;;;;;;;;;17.00;16.33;;;;;26.87;66.02;100237.88;5047634;28;45588;-71
2023/09/10 00:59:31;;;;;;;;;12.33;12.00;;;;;26.76;64.11;100266.97;5047931;28;46068;-69
2023/09/10 01:02:02;;;;;;;;;14.00;13.33;;;;;26.64;65.69;100288.88;5046979;28;45493;-78
2023/09/10 01:04:28;;;;;;;;;15.67;14.33;;;;;26.58;65.34;100295.34;5047729;28;46210;-74
2023/09/10 01:06:54;;;;;;;;;12.33;12.33;;;;;26.53;64.69;100300.88;5042206;28;45537;-74
2023/09/10 01:09:20;;;;;;;;;13.67;11.67;;;;;26.55;63.60;100300.81;5046339;28;46045;-78
2023/09/10 01:12:07;;;;;;;;;12.00;10.33;;;;;26.58;62.76;100300.72;5044429;28;45833;-70
2023/09/10 01:14:41;;;;;;;;;8.00;7.33;;;;;26.56;62.46;100332.91;5047750;28;45418;-71
2023/09/10 01:17:22;;;;;;;;;9.33;8.67;;;;;26.49;62.68;100335.91;5049933;28;45642;-70
2023/09/10 01:19:50;;;;;;;;;8.00;8.00;;;;;26.59;61.68;100314.06;5047213;28;45500;-70
2023/09/10 01:22:45;;;;;;;;;8.00;7.00;;;;;26.51;60.08;100302.75;5044234;28;45464;-73
2023/09/10 01:25:12;;;;;;;;;10.33;8.00;;;;;26.62;59.42;100322.91;5044056;28;45485;-71
2023/09/10 01:27:37;;;;;;;;;7.67;6.00;;;;;26.59;60.09;100331.94;5052778;28;45551;-71
2023/09/10 01:30:03;;;;;;;;;7.33;5.67;;;;;26.57;58.13;100345.38;5052719;28;45979;-69
2023/09/10 01:32:44;;;;;;;;;6.67;5.67;;;;;26.53;56.41;100350.91;5041322;28;45462;-70
2023/09/10 01:35:54;;;;;;;;;5.00;4.67;;;;;26.52;56.94;100357.19;5043208;28;45385;-70
2023/09/10 01:38:43;;;;;;;;;6.00;5.00;;;;;26.43;56.56;100349.53;5016754;28;45515;-72
2023/09/10 01:41:13;;;;;;;;;4.00;4.00;;;;;26.42;56.12;100335.25;5036724;28;45668;-70
2023/09/10 01:43:40;;;;;;;;;2.00;2.00;;;;;26.37;56.25;100331.88;5053101;28;45356;-69
2023/09/10 01:46:07;;;;;;;;;5.00;5.00;;;;;26.39;56.52;100325.53;5050730;28;45460;-70
2023/09/10 01:48:33;;;;;;;;;3.33;3.33;;;;;26.42;55.89;100331.69;5044870;28;45562;-69
2023/09/10 01:50:59;;;;;;;;;3.00;3.00;;;;;26.33;55.58;100309.72;5045960;28;45942;-73
2023/09/10 01:53:25;;;;;;;;;4.00;4.00;;;;;26.49;55.39;100318.00;5045078;28;45480;-70
2023/09/10 01:55:50;;;;;;;;;5.00;4.00;;;;;26.55;54.88;100311.53;5047096;28;45161;-69
2023/09/10 01:58:16;;;;;;;;;3.33;3.00;;;;;26.54;53.84;100299.06;5051341;28;45328;-69
2023/09/10 02:00:42;;;;;;;;;3.33;3.00;;;;;26.51;54.14;100305.44;5052535;28;45548;-70
2023/09/10 02:03:08;;;;;;;;;3.67;3.33;;;;;26.47;53.49;100313.66;5047699;28;45655;-69
2023/09/10 02:05:33;;;;;;;;;2.00;2.00;;;;;26.34;55.94;100326.63;5053790;28;45615;-70
2023/09/10 02:07:59;;;;;;;;;3.00;3.00;;;;;26.32;54.34;100321.38;5048660;28;45300;-70
2023/09/10 02:10:26;;;;;;;;;3.00;3.00;;;;;26.20;56.07;100316.47;5044325;28;45921;-70
2023/09/10 02:12:51;;;;;;;;;3.67;3.00;;;;;26.10;56.98;100299.91;5050429;28;45500;-71
2023/09/10 02:15:17;;;;;;;;;3.00;3.00;;;;;26.06;57.14;100274.16;5056279;28;45548;-71
2023/09/10 02:17:43;;;;;;;;;3.00;3.00;;;;;26.06;56.77;100274.16;5042369;28;45487;-70
2023/09/10 02:20:09;;;;;;;;;2.33;2.33;;;;;26.13;56.12;100250.72;5058451;28;46170;-74
2023/09/10 02:22:41;;;;;;;;;2.67;2.67;;;;;26.13;55.97;100234.66;5057979;28;45300;-71
2023/09/10 02:25:08;;;;;;;;;2.67;2.67;;;;;26.14;57.30;100231.03;5058555;28;45369;-73
2023/09/10 02:27:35;;;;;;;;;2.33;2.33;;;;;26.11;57.89;100252.59;5048871;28;45566;-70
2023/09/10 02:30:03;;;;;;;;;1.00;1.00;;;;;26.10;55.24;100248.16;5043770;28;45371;-69
2023/09/10 02:32:29;;;;;;;;;2.67;2.00;;;;;26.08;55.70;100252.69;5054003;28;45588;-70
2023/09/10 02:34:55;;;;;;;;;4.00;2.00;;;;;25.93;57.54;100246.13;5053624;28;45751;-77
2023/09/10 02:37:21;;;;;;;;;2.33;1.33;;;;;25.91;57.00;100214.06;5064406;28;45495;-71
2023/09/10 02:39:47;;;;;;;;;1.00;1.00;;;;;25.90;56.65;100212.31;5047435;28;45670;-70
2023/09/10 02:42:12;;;;;;;;;2.00;2.00;;;;;25.92;57.02;100191.72;5049823;28;45310;-69
2023/09/10 02:44:38;;;;;;;;;2.67;2.00;;;;;25.92;55.94;100226.50;5047868;28;45449;-70
2023/09/10 02:47:04;;;;;;;;;1.67;1.00;;;;;25.90;56.82;100190.00;5048463;28;45426;-70
2023/09/10 02:49:29;;;;;;;;;1.00;1.00;;;;;25.91;55.35;100219.44;5053807;28;45355;-70
2023/09/10 02:51:55;;;;;;;;;1.00;1.00;;;;;25.93;56.42;100220.25;5052103;28;45406;-70
2023/09/10 02:54:21;;;;;;;;;2.00;2.00;;;;;25.77;57.65;100222.59;5056484;28;45463;-71
2023/09/10 02:56:47;;;;;;;;;2.33;2.00;;;;;25.74;56.80;100246.78;5041516;28;45332;-70
2023/09/10 02:59:20;;;;;;;;;1.33;1.33;;;;;25.69;58.48;100215.81;5044900;28;46082;-73
2023/09/10 03:01:46;;;;;;;;;2.00;2.00;;;;;25.49;58.95;100190.69;5054880;28;45602;-69
2023/09/10 03:04:15;;;;;;;;;2.00;2.00;;;;;25.38;58.24;100224.97;5056680;28;45505;-70
2023/09/10 03:06:45;;;;;;;;;1.00;1.00;;;;;25.39;58.68;100226.72;5045112;28;45981;-70
2023/09/10 03:09:11;;;;;;;;;2.00;2.00;;;;;25.37;58.52;100217.88;5042998;28;45412;-71
2023/09/10 03:11:40;;;;;;;;;1.67;1.00;;;;;25.41;58.74;100240.91;5048817;28;45500;-69
2023/09/10 03:14:06;;;;;;;;;1.00;1.00;;;;;25.40;59.35;100250.69;5050526;28;45374;-71
2023/09/10 03:16:33;;;;;;;;;1.00;1.00;;;;;25.39;60.12;100253.47;5040838;28;45492;-69
2023/09/10 03:18:59;;;;;;;;;2.00;2.00;;;;;25.34;60.47;100263.44;5044379;28;46190;-73
2023/09/10 03:21:28;;;;;;;;;1.00;1.00;;;;;25.26;61.73;100252.13;5042544;28;45493;-71
2023/09/10 03:23:55;;;;;;;;;1.00;1.00;;;;;25.24;61.13;100243.31;5052748;28;45318;-69
2023/09/10 03:26:21;;;;;;;;;2.00;2.00;;;;;24.95;60.35;100195.28;5043813;28;45332;-70
2023/09/10 03:28:46;;;;;;;;;2.00;2.00;;;;;25.16;61.31;100247.06;5054776;28;46720;-71
2023/09/10 03:31:12;;;;;;;;;2.00;2.00;;;;;25.12;61.47;100226.72;5051088;28;45521;-72
2023/09/10 03:33:38;;;;;;;;;1.33;1.33;;;;;25.23;60.92;100231.75;5048461;28;45337;-72
2023/09/10 03:36:05;;;;;;;;;2.00;1.33;;;;;25.23;61.24;100218.38;5040124;28;45506;-70
2023/09/10 03:38:31;;;;;;;;;1.00;1.00;;;;;25.16;60.94;100208.78;5055992;28;45489;-72
2023/09/10 03:40:57;;;;;;;;;1.00;1.00;;;;;25.10;60.79;100199.19;5053931;28;45536;-70
2023/09/10 03:43:22;;;;;;;;;2.00;2.00;;;;;24.93;62.62;100207.81;5045725;28;45180;-69
2023/09/10 03:45:48;;;;;;;;;2.00;1.00;;;;;24.87;63.12;100210.69;5040338;28;45803;-72
2023/09/10 03:48:13;;;;;;;;;1.00;1.00;;;;;24.82;62.63;100185.94;5047005;28;45978;-74
2023/09/10 03:50:39;;;;;;;;;2.00;1.00;;;;;24.90;61.93;100183.00;5044261;28;45479;-69
2023/09/10 03:53:05;;;;;;;;;2.00;2.00;;;;;24.95;63.53;100197.94;5044005;28;45828;-74
2023/09/10 03:55:30;;;;;;;;;2.00;1.00;;;;;24.92;62.24;100173.13;5052787;28;45401;-70
2023/09/10 03:57:56;;;;;;;;;2.00;1.67;;;;;24.96;63.51;100158.72;5037315;28;46053;-70
2023/09/10 04:00:22;;;;;;;;;1.00;1.00;;;;;24.89;63.36;100168.78;5040898;28;45421;-76
2023/09/10 04:02:48;;;;;;;;;1.00;1.00;;;;;24.90;63.18;100166.97;5050666;28;45507;-73
2023/09/10 04:05:14;;;;;;;;;2.33;2.00;;;;;24.87;64.24;100167.06;5044791;28;45453;-77
2023/09/10 04:07:40;;;;;;;;;2.00;2.00;;;;;24.74;64.54;100169.28;5042117;28;46263;-69
2023/09/10 04:10:07;;;;;;;;;2.67;2.00;;;;;24.80;63.83;100174.41;5044361;28;45347;-70
2023/09/10 04:12:33;;;;;;;;;2.67;2.00;;;;;24.67;63.76;100178.44;5054705;28;45432;-84
2023/09/10 04:14:59;;;;;;;;;2.00;1.00;;;;;24.51;63.88;100164.72;5050321;28;45540;-79
2023/09/10 04:17:28;;;;;;;;;2.00;1.33;;;;;24.55;63.58;100174.38;5046776;28;45611;-84
2023/09/10 04:19:59;;;;;;;;;2.00;2.00;;;;;24.53;63.51;100165.53;5052474;28;45512;-82
2023/09/10 04:22:26;;;;;;;;;2.00;1.67;;;;;24.43;62.41;100159.59;5053100;28;45602;-72
2023/09/10 04:24:51;;;;;;;;;1.67;1.00;;;;;24.32;63.13;100143.09;5053655;28;45588;-82
2023/09/10 04:27:17;;;;;;;;;3.00;1.33;;;;;24.33;64.03;100143.06;5053322;28;45421;-79
2023/09/10 04:29:43;;;;;;;;;1.67;1.67;;;;;24.34;64.78;100150.13;5047524;28;45460;-80
2023/09/10 04:32:09;;;;;;;;;1.00;1.00;;;;;24.41;63.85;100151.66;5038206;28;45477;-71
2023/09/10 04:34:34;;;;;;;;;1.67;1.67;;;;;24.48;64.22;100146.13;5037722;28;45584;-74
2023/09/10 04:37:03;;;;;;;;;1.00;1.00;;;;;24.43;64.53;100148.94;5036521;28;45936;-75
2023/09/10 04:39:28;;;;;;;;;1.00;0.00;;;;;24.43;63.72;100148.94;5036771;28;45580;-73
2023/09/10 04:41:54;;;;;;;;;2.00;1.00;;;;;24.44;64.24;100155.16;5052659;28;46179;-76
2023/09/10 04:44:20;;;;;;;;;1.00;1.00;;;;;24.37;65.19;100174.06;5046217;28;45383;-76
2023/09/10 04:46:46;;;;;;;;;1.00;1.00;;;;;24.28;65.15;100190.38;5045983;28;45529;-73
2023/09/10 04:49:11;;;;;;;;;2.00;2.00;;;;;24.39;64.57;100214.94;5046690;28;45515;-76
2023/09/10 04:51:37;;;;;;;;;1.00;1.00;;;;;24.32;64.60;100228.50;5045880;28;45419;-76
2023/09/10 04:54:03;;;;;;;;;2.00;1.33;;;;;24.23;65.11;100243.00;5048295;28;45509;-74
2023/09/10 04:56:28;;;;;;;;;2.33;2.00;;;;;24.28;64.52;100262.44;5045407;28;45833;-80
2023/09/10 04:58:54;;;;;;;;;1.33;1.33;;;;;24.25;64.65;100261.66;5044257;28;45447;-80
2023/09/10 05:01:20;;;;;;;;;2.00;2.00;;;;;24.33;63.62;100271.19;5040760;28;45539;-80
2023/09/10 05:03:45;;;;;;;;;1.00;1.00;;;;;24.35;63.56;100265.78;5036460;28;45443;-77
2023/09/10 05:06:13;;;;;;;;;1.67;1.33;;;;;24.41;62.72;100254.91;5053930;28;46189;-79
2023/09/10 05:08:38;;;;;;;;;2.00;2.00;;;;;24.31;62.63;100233.00;5055820;28;45328;-71
2023/09/10 05:11:04;;;;;;;;;1.00;1.00;;;;;24.37;62.83;100234.56;5056052;28;45990;-69
2023/09/10 05:13:30;;;;;;;;;2.00;2.00;;;;;24.42;62.56;100233.50;5056536;28;45488;-70
2023/09/10 05:15:57;;;;;;;;;2.00;2.00;;;;;24.37;62.62;100203.41;5039821;28;45496;-69
2023/09/10 05:18:24;;;;;;;;;2.00;1.00;;;;;24.30;63.92;100201.00;5050182;28;45501;-71
2023/09/10 05:20:52;;;;;;;;;2.00;1.00;;;;;24.32;64.21;100189.34;5035731;28;45548;-71
2023/09/10 05:23:21;;;;;;;;;1.33;1.33;;;;;24.37;64.78;100206.09;5052746;28;45609;-73
2023/09/10 05:25:47;;;;;;;;;1.00;1.00;;;;;24.44;64.56;100200.56;5056283;28;46157;-74
2023/09/10 05:28:13;;;;;;;;;1.00;1.00;;;;;24.47;63.88;100193.31;5046139;28;45478;-73
2023/09/10 05:30:38;;;;;;;;;2.00;2.00;;;;;24.32;63.63;100172.47;5059133;28;45446;-72
2023/09/10 05:33:04;;;;;;;;;2.00;1.00;;;;;24.31;64.41;100192.06;5059848;28;45409;-72
2023/09/10 05:35:30;;;;;;;;;1.33;1.33;;;;;24.23;65.03;100200.31;5056282;28;45493;-72
2023/09/10 05:37:56;;;;;;;;;1.00;1.00;;;;;24.01;65.49;100185.00;5040450;28;45377;-71
2023/09/10 05:40:22;;;;;;;;;3.00;2.67;;;;;23.99;64.77;100197.50;5039875;28;45473;-71
2023/09/10 05:42:47;;;;;;;;;3.33;3.33;;;;;23.94;65.55;100199.44;5053781;28;45497;-72
2023/09/10 05:45:13;;;;;;;;;3.33;2.33;;;;;24.03;65.62;100200.94;5058052;28;46139;-71
2023/09/10 05:47:38;;;;;;;;;2.00;2.00;;;;;24.05;66.00;100193.75;5060735;28;45386;-73
2023/09/10 05:50:05;;;;;;;;;2.00;2.00;;;;;23.95;65.20;100178.97;5056414;28;45236;-74
2023/09/10 05:52:31;;;;;;;;;2.33;2.00;;;;;24.00;64.59;100183.22;5049915;28;46190;-72
2023/09/10 05:54:56;;;;;;;;;2.00;2.00;;;;;24.15;64.30;100194.34;5049402;28;45577;-72
2023/09/10 05:57:22;;;;;;;;;2.00;2.00;;;;;24.14;64.05;100181.94;5053076;28;45822;-73
2023/09/10 05:59:47;;;;;;;;;3.00;2.67;;;;;24.29;64.09;100189.47;5058307;28;45501;-73
2023/09/10 06:02:13;;;;;;;;;3.00;2.33;;;;;24.31;65.02;100189.38;5054003;28;45314;-72
2023/09/10 06:04:40;;;;;;;;;2.00;2.00;;;;;24.45;63.45;100192.47;5049023;28;46163;-69
2023/09/10 06:07:05;;;;;;;;;1.67;1.67;;;;;24.45;63.24;100202.28;5058522;28;45328;-72
2023/09/10 06:09:31;;;;;;;;;2.00;2.00;;;;;24.43;63.08;100199.66;5056063;28;45396;-72
2023/09/10 06:11:59;;;;;;;;;3.33;3.33;;;;;24.44;63.54;100208.56;5054224;28;45422;-72
2023/09/10 06:14:24;;;;;;;;;2.00;2.00;;;;;24.37;63.04;100197.19;5048698;28;45492;-74
2023/09/10 06:16:50;;;;;;;;;1.00;1.00;;;;;24.47;63.38;100203.09;5046163;28;45465;-73
2023/09/10 06:19:16;;;;;;;;;2.67;2.00;;;;;24.54;62.54;100196.69;5056114;28;45412;-82
2023/09/10 06:21:42;;;;;;;;;1.67;1.67;;;;;24.64;62.09;100203.47;5059622;28;45438;-79
2023/09/10 06:24:07;;;;;;;;;2.00;2.00;;;;;24.65;62.74;100193.63;5057848;28;46522;-83
2023/09/10 06:26:34;;;;;;;;;2.33;2.00;;;;;24.64;63.10;100192.78;5054452;28;45348;-78
2023/09/10 06:29:00;;;;;;;;;2.67;2.67;;;;;24.63;63.42;100204.41;5057070;28;45318;-73
2023/09/10 06:31:26;;;;;;;;;4.00;2.67;;;;;24.70;63.44;100207.72;5060297;28;45439;-76
2023/09/10 06:33:54;;;;;;;;;2.00;2.00;;;;;24.72;63.01;100205.88;5059457;28;45455;-77
2023/09/10 06:36:20;;;;;;;;;2.00;2.00;;;;;24.75;62.42;100203.97;5060351;28;45429;-83
2023/09/10 06:38:49;;;;;;;;;3.00;2.00;;;;;24.86;62.76;100206.25;5058530;28;46113;-80
2023/09/10 06:41:15;;;;;;;;;2.33;2.00;;;;;24.93;63.13;100206.91;5058887;28;45455;-73
2023/09/10 06:43:41;;;;;;;;;3.33;2.00;;;;;24.93;62.98;100198.91;5058602;28;45485;-81
2023/09/10 06:46:07;;;;;;;;;1.33;1.33;;;;;25.00;62.76;100203.13;5058566;28;45480;-79
2023/09/10 06:48:33;;;;;;;;;5.00;3.00;;;;;25.09;61.71;100208.16;5057678;28;45212;-80
2023/09/10 06:51:00;;;;;;;;;3.33;3.00;;;;;25.21;60.81;100209.50;5051324;28;45299;-78
2023/09/10 06:53:27;;;;;;;;;3.00;1.67;;;;;25.33;59.85;100208.22;5049071;28;45458;-76
2023/09/10 06:55:54;;;;;;;;;2.00;2.00;;;;;25.46;59.14;100208.63;5058164;28;45515;-78
2023/09/10 06:58:19;;;;;;;;;2.00;2.00;;;;;25.47;60.73;100216.59;5056572;28;45381;-83
2023/09/10 07:00:45;;;;;;;;;2.33;2.33;;;;;25.58;60.68;100217.06;5058461;28;45826;-76
2023/09/10 07:03:13;;;;;;;;;2.33;2.33;;;;;25.74;60.29;100227.19;5047840;28;46064;-74
2023/09/10 07:05:40;;;;;;;;;4.00;2.33;;;;;25.83;60.04;100216.16;5053350;28;45640;-79
2023/09/10 07:08:06;;;;;;;;;2.33;2.33;;;;;25.94;59.84;100221.09;5056054;28;45769;-80
2023/09/10 07:10:33;;;;;;;;;2.00;2.00;;;;;26.07;59.69;100224.19;5056774;28;45553;-81
2023/09/10 07:12:59;;;;;;;;;3.67;3.67;;;;;26.09;58.99;100217.84;5056666;28;46191;-80
2023/09/10 07:15:25;;;;;;;;;3.00;3.00;;;;;26.17;59.55;100215.72;5055019;28;45508;-78
2023/09/10 07:17:51;;;;;;;;;3.00;3.00;;;;;26.32;59.78;100224.97;5045258;28;45522;-82
2023/09/10 07:20:16;;;;;;;;;3.00;3.00;;;;;26.50;59.25;100209.06;5058914;28;45655;-75
2023/09/10 07:22:42;;;;;;;;;3.00;3.00;;;;;26.64;59.99;100214.75;5050844;28;45507;-82
2023/09/10 07:25:08;;;;;;;;;5.00;5.00;;;;;27.74;57.79;100218.88;5040698;28;45403;-80
2023/09/10 07:27:34;;;;;;;;;2.67;2.67;;;;;27.87;56.64;100222.75;5058475;28;45470;-80
2023/09/10 07:29:59;;;;;;;;;4.00;4.00;;;;;28.17;56.10;100216.88;5056882;28;45291;-79
2023/09/10 07:32:25;;;;;;;;;3.00;3.00;;;;;28.37;55.80;100218.56;5053644;28;46115;-79
2023/09/10 07:34:51;;;;;;;;;5.00;4.67;;;;;28.65;54.30;100222.63;5057336;28;45482;-72
2023/09/10 07:37:16;;;;;;;;;3.00;3.00;;;;;28.75;54.58;100215.84;5053471;28;45431;-79
2023/09/10 07:39:42;;;;;;;;;2.67;2.00;;;;;29.53;52.80;100233.28;5054397;28;45449;-83
2023/09/10 07:42:08;;;;;;;;;3.00;3.00;;;;;30.81;48.51;100218.03;5044432;28;46032;-71
2023/09/10 07:44:34;;;;;;;;;3.00;3.00;;;;;30.55;49.77;100214.19;5048432;28;45449;-75
2023/09/10 07:46:59;;;;;;;;;3.00;3.00;;;;;31.71;46.13;100230.56;5047044;28;45409;-78
2023/09/10 07:49:25;;;;;;;;;2.67;2.00;;;;;31.54;46.78;100227.22;5050971;28;45296;-83
2023/09/10 07:51:50;;;;;;;;;4.00;3.33;;;;;31.32;47.07;100229.38;5055001;28;46846;-74
2023/09/10 07:54:16;;;;;;;;;5.33;5.33;;;;;31.16;47.44;100233.06;5043628;28;45533;-69
2023/09/10 07:56:42;;;;;;;;;3.00;2.00;;;;;31.10;46.70;100227.13;5052479;28;45435;-77
2023/09/10 07:59:11;;;;;;;;;3.33;3.33;;;;;31.05;44.89;100236.44;5054208;28;45239;-82
2023/09/10 08:01:40;;;;;;;;;2.00;2.00;;;;;31.06;45.03;100239.06;5050186;28;46059;-81
2023/09/10 08:04:06;;;;;;;;;2.00;2.00;;;;;30.93;47.40;100243.44;5049941;28;45525;-71
2023/09/10 08:06:31;;;;;;;;;2.33;2.33;;;;;30.50;50.16;100246.81;5045048;28;45411;-72
2023/09/10 08:08:58;;;;;;;;;4.00;3.67;;;;;30.31;49.15;100252.38;5042903;28;45234;-73
2023/09/10 08:11:23;;;;;;;;;5.33;4.67;;;;;30.18;49.59;100251.28;5041421;28;46171;-71
2023/09/10 08:13:50;;;;;;;;;3.00;3.00;;;;;30.32;50.57;100251.44;5049104;28;45286;-70
2023/09/10 08:16:17;;;;;;;;;3.33;3.00;;;;;30.29;50.19;100253.41;5053772;28;45453;-71
2023/09/10 08:18:44;;;;;;;;;3.00;3.00;;;;;29.82;50.84;100233.53;5055995;28;45771;-74
2023/09/10 08:21:11;;;;;;;;;3.00;3.00;;;;;29.53;52.13;100249.44;5055993;28;45639;-72
2023/09/10 08:23:37;;;;;;;;;1.67;1.67;;;;;29.45;52.00;100246.28;5038365;28;45671;-74
2023/09/10 08:26:03;;;;;;;;;4.00;3.33;;;;;29.48;51.21;100250.63;5042015;28;45704;-70
2023/09/10 08:28:29;;;;;;;;;3.00;3.00;;;;;29.41;51.82;100249.25;5042425;28;45494;-69
2023/09/10 08:30:54;;;;;;;;;3.00;2.00;;;;;29.35;52.48;100255.81;5050814;28;45449;-68
2023/09/10 08:33:21;;;;;;;;;2.00;2.00;;;;;29.60;52.01;100252.66;5048304;28;45571;-69
2023/09/10 08:35:49;;;;;;;;;2.00;2.00;;;;;29.81;50.93;100272.22;5038837;28;45457;-68
2023/09/10 08:38:16;;;;;;;;;2.00;2.00;;;;;30.11;50.80;100276.84;5051580;28;45531;-69
2023/09/10 08:40:52;;;;;;;;;3.00;3.00;;;;;30.50;51.01;100275.56;5052695;28;46251;-69
2023/09/10 08:43:23;;;;;;;;;3.33;3.00;;;;;30.83;50.36;100274.59;5041958;28;45319;-76
2023/09/10 08:45:49;;;;;;;;;4.33;4.33;;;;;30.96;49.71;100283.72;5037466;28;45232;-73
2023/09/10 08:48:18;;;;;;;;;4.00;3.00;;;;;30.89;50.38;100277.81;5043550;28;45454;-70
2023/09/10 08:50:46;;;;;;;;;2.67;2.67;;;;;30.77;50.48;100286.59;5042338;28;46656;-74
2023/09/10 08:53:13;;;;;;;;;4.00;3.00;;;;;30.68;50.50;100288.00;5044559;28;45596;-69
2023/09/10 08:55:42;;;;;;;;;3.67;3.00;;;;;30.80;50.62;100288.22;5047709;28;45418;-69
2023/09/10 08:58:11;;;;;;;;;3.00;3.00;;;;;30.92;49.19;100291.13;5055579;28;46626;-71
2023/09/10 09:00:38;;;;;;;;;3.00;3.00;;;;;31.05;48.68;100283.16;5039998;28;45928;-70
2023/09/10 09:03:04;;;;;;;;;4.00;3.67;;;;;31.26;48.90;100283.72;5055457;28;45404;-70
2023/09/10 09:05:31;;;;;;;;;2.00;2.00;;;;;31.61;47.98;100287.94;5055946;28;45495;-70
2023/09/10 09:08:05;;;;;;;;;3.00;3.00;;;;;31.73;47.19;100284.47;5053670;28;45357;-70
2023/09/10 09:10:33;;;;;;;;;2.67;2.67;;;;;31.77;46.44;100290.56;5050130;28;46273;-69
2023/09/10 09:13:06;;;;;;;;;3.00;3.00;;;;;31.65;47.13;100287.63;5055535;28;45556;-69
2023/09/10 09:15:32;;;;;;;;;5.00;5.00;;;;;31.66;47.97;100286.69;5055757;28;45584;-72
2023/09/10 09:17:58;;;;;;;;;3.00;3.00;;;;;31.83;47.71;100282.06;5055849;28;45398;-70
2023/09/10 09:20:25;;;;;;;;;3.00;3.00;;;;;31.99;47.05;100274.72;5051761;28;45418;-69
2023/09/10 09:22:56;;;;;;;;;3.00;3.00;;;;;32.08;46.40;100276.00;5051410;28;45635;-69
2023/09/10 09:25:22;;;;;;;;;5.00;5.00;;;;;32.33;46.55;100279.81;5055903;28;45299;-69
2023/09/10 09:27:50;;;;;;;;;20.00;18.00;;;;;32.38;45.75;100283.09;5054868;28;45387;-70
2023/09/10 09:30:15;;;;;;;;;6.00;5.00;;;;;32.63;44.19;100280.53;5040163;28;46326;-69
2023/09/10 09:32:42;;;;;;;;;4.00;4.00;;;;;33.12;46.14;100270.97;5055235;28;45498;-70
2023/09/10 09:35:11;;;;;;;;;8.33;8.33;;;;;33.55;45.45;100265.28;5055515;28;45385;-71
2023/09/10 09:37:37;;;;;;;;;3.33;3.00;;;;;34.06;44.92;100267.06;5053593;28;45405;-70
2023/09/10 09:40:04;;;;;;;;;4.00;3.33;;;;;34.52;44.65;100266.44;5050304;28;45474;-71
2023/09/10 09:42:38;;;;;;;;;4.00;4.00;;;;;34.74;43.86;100270.25;5044707;28;45501;-69
2023/09/10 09:45:05;;;;;;;;;6.00;4.33;;;;;34.91;41.37;100256.28;5055321;28;45351;-69
2023/09/10 09:47:31;;;;;;;;;4.00;3.33;;;;;35.08;42.70;100267.66;5044489;28;45784;-69
2023/09/10 09:49:57;;;;;;;;;3.00;2.67;;;;;35.29;42.88;100266.03;5041883;28;45472;-75
2023/09/10 09:52:24;;;;;;;;;5.00;5.00;;;;;35.94;41.47;100264.53;5048262;28;45504;-71
2023/09/10 09:54:50;;;;;;;;;3.67;3.00;;;;;36.33;41.31;100258.69;5049098;28;45388;-72
2023/09/10 09:57:16;;;;;;;;;5.00;5.00;;;;;36.59;39.35;100257.38;5048474;28;45633;-73
2023/09/10 09:59:43;;;;;;;;;3.33;3.00;;;;;36.82;38.80;100250.00;5055459;28;45580;-76
2023/09/10 10:02:18;;;;;;;;;2.00;2.00;;;;;37.29;38.24;100246.09;5044971;28;45462;-71
2023/09/10 10:04:44;;;;;;;;;3.00;3.00;;;;;37.76;38.74;100252.84;5051867;28;45371;-70
2023/09/10 10:07:17;;;;;;;;;2.67;2.67;;;;;38.32;37.42;100256.03;5047440;28;45636;-72
2023/09/10 10:09:42;;;;;;;;;2.33;2.33;;;;;38.96;36.65;100261.00;5056160;28;46176;-71
2023/09/10 10:12:09;;;;;;;;;2.00;2.00;;;;;39.53;35.10;100262.94;5043457;28;45570;-71
2023/09/10 10:14:36;;;;;;;;;3.00;3.00;;;;;39.91;33.07;100256.53;5053726;28;45493;-69
2023/09/10 10:17:04;;;;;;;;;3.00;2.00;;;;;40.28;32.82;100257.47;5046191;28;45506;-72
2023/09/10 10:19:31;;;;;;;;;4.00;4.00;;;;;40.60;32.53;100262.44;5042295;28;46126;-70
2023/09/10 10:21:58;;;;;;;;;4.00;4.00;;;;;40.67;32.36;100259.94;5050657;28;45356;-70
2023/09/10 10:24:23;;;;;;;;;3.33;3.33;;;;;40.56;32.54;100255.56;5053096;28;45556;-71
2023/09/10 10:26:51;;;;;;;;;3.67;2.67;;;;;40.82;33.36;100252.91;5048666;28;45848;-70
2023/09/10 10:29:21;;;;;;;;;4.00;4.00;;;;;41.04;31.37;100253.44;5053539;28;45506;-70
2023/09/10 10:31:56;;;;;;;;;3.00;3.00;;;;;41.11;30.92;100244.44;5058233;28;45573;-70
2023/09/10 10:34:23;;;;;;;;;5.00;5.00;;;;;40.88;31.72;100245.97;5043171;28;45484;-72
2023/09/10 10:37:14;;;;;;;;;4.00;3.00;;;;;40.64;32.35;100246.56;5043016;28;45595;-71
2023/09/10 10:39:56;;;;;;;;;4.00;4.00;;;;;40.59;33.12;100241.56;5048181;28;46156;-71
2023/09/10 10:42:35;;;;;;;;;4.00;3.00;;;;;40.79;33.08;100239.56;5045120;28;45457;-70
2023/09/10 10:45:06;;;;;;;;;3.00;3.00;;;;;40.90;31.98;100244.78;5047673;28;45467;-72
2023/09/10 10:47:41;;;;;;;;;4.00;4.00;;;;;40.73;32.29;100243.75;5041320;28;45672;-71
2023/09/10 10:50:09;;;;;;;;;3.33;3.33;;;;;40.71;32.69;100239.47;5059069;28;46242;-71
2023/09/10 10:52:42;;;;;;;;;3.33;3.33;;;;;40.33;32.42;100241.44;5057385;28;45425;-70
2023/09/10 10:55:09;;;;;;;;;4.67;4.67;;;;;40.35;32.71;100242.16;5053834;28;45362;-71
2023/09/10 10:57:36;;;;;;;;;3.00;3.00;;;;;40.22;32.20;100226.09;5045761;28;45320;-71
2023/09/10 11:00:03;;;;;;;;;5.33;4.00;;;;;40.21;32.34;100226.25;5057390;28;46496;-71
2023/09/10 11:02:29;;;;;;;;;4.00;4.00;;;;;39.97;32.99;100227.66;5044635;28;45279;-71
2023/09/10 11:05:05;;;;;;;;;2.00;2.00;;;;;39.61;33.11;100219.31;5042206;28;45543;-71
2023/09/10 11:07:32;;;;;;;;;3.33;3.00;;;;;39.18;32.65;100223.47;5049659;28;45500;-72
2023/09/10 11:09:59;;;;;;;;;4.00;4.00;;;;;38.98;34.84;100217.19;5057582;28;46162;-71
2023/09/10 11:12:27;;;;;;;;;7.67;7.33;;;;;38.88;34.44;100210.81;5045544;28;45561;-77
2023/09/10 11:15:01;;;;;;;;;6.67;6.67;;;;;38.85;35.21;100214.72;5054530;28;45429;-71
2023/09/10 11:17:35;;;;;;;;;3.67;3.33;;;;;38.35;34.89;100220.28;5044528;28;45516;-71
2023/09/10 11:20:04;;;;;;;;;8.33;8.33;;;;;38.18;36.05;100219.97;5045074;28;45531;-71
2023/09/10 11:23:05;;;;;;;;;8.00;8.00;;;;;38.26;37.08;100222.00;5057315;28;45405;-71
2023/09/10 11:25:32;;;;;;;;;4.00;4.00;;;;;38.32;35.75;100207.78;5057228;28;45348;-71